Airfield :
LOGIN :

Register | Disclaimer

   EN    FR    IT 

 










Legend :    VFR   Marginal VFR   IFR   Intensive IFR   Very Intensive IFR
Visi :
Ceiling :
>= 8 km
>= 3000ft
5 to 8 km
1000 to 3000 ft
1500m to 5 km
500 to 1000 ft
800 to 1500m
200 to 500 ft
< 800m
< 200 ft
Symbols :   Thunderstorms  Fog  Heavy snow  Heavy precipitations  Wind > 20 kt
SIGMETs :     Misc.  Thunderstorms  Icing  Turbulence  Mountain Waves  Volcanic Ashes






- Airport Elevation : 466 ft


LHPA - Pápa

CURRENT METAR :
  • 250515Z 30006KT 9999 -RA BKN040 OVC083 12/09 Q1027 NOSIG RMK BLU

EXPIRED METARs :
  • 250445Z 28004KT 9999 -RA BKN040 OVC083 12/08 Q1027 TEMPO NSW RMK BLU
  • 250415Z 28004KT 9999 -RA BKN043 OVC083 11/08 Q1027 TEMPO NSW RMK BLU
  • 250407Z 26002KT 9999 -RA BKN043 OVC083 11/07 Q1027 RMK BLU
  • 250345Z 00000KT CAVOK 10/08 Q1027 MPO -RA RMK BLU
  • 250315Z 18002KT CAVOK 09/07 Q1027 NOSIG RMK BLU
  • 250245Z 19002KT CAVOK 09/07 Q1027 NOSIG RMK BLU

TAF TAF LHPA
Valid from the 25 at 06:00 until the 26 at 06:00 UTC


250515Z 2506/2606 29005KT CAVOK
BECMG 2506/2509 30009KT
TEMPO 2506/2508 9999 -SHRA -RA BKN040 OVC083
TEMPO 2509/2520 31016G28KT 7000 SHRA BKN030TCU BKN060
PROB40
TEMPO 2511/2518 VRB18G36KT 4000 TSRA TSRAGS BKN025CB
BECMG 2521/2524 34011KT 9999 BKN025



MET'MAP, your aeronautical weather chart ! - Copyright ORBIFLY December 2007 - Disclaimer

ORBIFLY MET'MAP TEAM :

Programming & Development : Alexandra Zaïnal
Concept & original design : Baudouin d'Aumeries
Assistance for programming : Marc-Olivier Méhu
Technical & hardware support : Manuel Goepfert

Contact : metmap@orbifly.com




SOURCES & CREDITS :

   NOAA